Latest Coastal Weather Observations for Evans Head

IDN60701

Issued at 4:52 pm EDT Thursday 25 February 2021 (issued every 10 minutes, with the page automatically refreshed every 10 minutes)

About coastal observations | Map of coastal stations | Coastal observations for NSW | Marine services | Other Formats
Station Details ID: 058212 Name: EVANS HEAD RAAF BOMBING RANGE AWS Lat: -29.18 Lon: 153.40 Height: 62.5 m
Data from the previous 72 hours. | See also: Recent months at Evans Head
Date/Time
EDT
Wind Sea
Height
m
Swell Vis
km
Cloud Weather Temp
°C
Press
MSL
hPa
Rain since
9am
mm
Dir  Spd
kts
Gust
kts
Height
m
Period
s
Dir
25/04:30pm NE 12 21 - - - - - - - 26.6 1009.7 1.2
25/04:00pm NE 13 19 - - - - - - - 27.0 1010.1 1.2
25/03:30pm NNE 9 19 - - - - - - - 27.0 1010.3 1.2
25/03:00pm NNE 10 17 - - - - - - - 27.7 1010.7 1.2
25/02:30pm NNE 11 19 - - - - - - - 27.3 1011.1 1.2
25/02:00pm NNE 10 16 - - - - - - - 28.5 1011.2 1.2
25/01:30pm NNE 12 23 - - - - - - - 27.6 1011.5 1.2
25/01:00pm NNE 10 18 - - - - - - - 27.7 1011.9 1.2
25/12:30pm NNE 9 14 - - - - - - - 27.0 1012.4 1.2
25/12:00pm NNE 9 13 - - - - - - - 26.2 1012.9 1.2
25/11:30am N 10 16 - - - - - - - 27.0 1013.1 1.2
25/11:00am NNE 9 15 - - - - - - - 26.2 1013.4 1.2
25/10:30am N 7 13 - - - - - - - 23.9 1013.7 1.2
25/10:00am NNW 5 9 - - - - - - - 24.0 1013.6 1.2
25/09:30am NE 7 12 - - - - - - - 25.0 1013.9 0.0
25/09:00am ENE 8 13 - - - - - - - 25.3 1013.7 1.2
25/08:30am ENE 7 10 - - - - - - - 24.7 1013.7 1.2
25/08:00am NE 7 11 - - - - - - - 23.7 1013.5 1.2
25/07:30am NNE 5 7 - - - - - - - 22.2 1013.5 1.2
25/07:00am N 4 6 - - - - - - - 21.7 1013.3 1.2
25/06:30am NNE 5 9 - - - - - - - 21.6 1013.1 1.2
25/06:00am NNE 6 8 - - - - - - Rain 21.7 1012.9 0.8
25/05:30am NE 5 8 - - - - - - - 22.5 1013.0 0.2
25/05:00am N 4 6 - - - - - - - 22.1 1012.9 0.0
25/04:30am NE 5 9 - - - - - - - 22.7 1012.9 0.0
25/04:00am NNE 5 7 - - - - - - - 22.4 1013.0 0.0
25/03:30am NNE 5 8 - - - - - - - 22.2 1013.4 0.0
25/03:00am NNE 6 9 - - - - - - - 22.5 1013.4 0.0
25/02:30am NNE 6 10 - - - - - - - 22.9 1013.7 0.0
25/02:00am NNE 7 12 - - - - - - - 23.1 1013.9 0.0
25/01:30am NNE 7 11 - - - - - - - 23.2 1014.0 0.0
25/01:00am NE 8 12 - - - - - - - 23.3 1014.4 0.0
25/12:30am NE 9 13 - - - - - - - 23.3 1014.6 0.0
25/12:00am NNE 8 15 - - - - - - - 23.1 1015.0 0.0
 
Date/Time
EDT
Wind Sea
Height
m
Swell Vis
km
Cloud Weather Temp
°C
Press
MSL
hPa
Rain since
9am
mm
Dir  Spd
kts
Gust
kts
Height
m
Period
s
Dir
24/11:30pm NNE 7 11 - - - - - - - 23.0 1015.0 0.0
24/11:00pm NE 11 18 - - - - - - - 23.7 1014.7 0.0
24/10:30pm NE 10 17 - - - - - - - 23.8 1014.6 0.0
24/10:00pm ENE 13 19 - - - - - - - 23.8 1014.4 0.0
24/09:30pm ENE 13 19 - - - - - - - 23.8 1014.0 0.0
24/09:00pm ENE 11 17 - - - - - - - 23.9 1014.2 0.0
24/08:30pm ENE 13 19 - - - - - - - 24.0 1014.0 0.0
24/08:00pm ENE 13 20 - - - - - - - 24.0 1013.7 0.0
24/07:30pm ENE 11 16 - - - - - - - 23.9 1013.4 0.0
24/07:00pm ENE 12 19 - - - - - - - 23.9 1013.0 0.0
24/06:30pm E 13 19 - - - - - - - 24.0 1012.9 0.0
24/06:00pm ENE 11 16 - - - - - - - 24.1 1013.0 0.0
24/05:30pm ENE 13 18 - - - - - - - 24.3 1013.1 0.0
24/05:00pm ENE 13 19 - - - - - - - 24.4 1013.0 0.0
24/04:30pm E 13 20 - - - - - - - 24.9 1012.9 0.0
24/04:00pm E 11 17 - - - - - - - 26.4 1013.0 0.0
24/03:30pm E 12 17 - - - - - - - 25.5 1013.1 0.0
24/03:00pm ENE 8 13 - - - - - - - 24.3 1013.4 0.0
24/02:30pm ENE 10 17 - - - - - - - 25.1 1013.4 0.0
24/02:00pm NE 10 13 - - - - - - - 23.6 1014.1 0.0
24/01:30pm E 8 10 - - - - - - - 23.7 1014.6 0.0
24/01:00pm E 10 13 - - - - - - - 23.8 1014.9 0.0
24/12:30pm E 12 16 - - - - - - - 24.9 1015.0 0.0
24/12:00pm ESE 11 15 - - - - - - - 24.5 1015.3 0.0
24/11:30am ESE 12 16 - - - - - - - 23.6 1015.2 0.0
24/11:00am SSE 9 13 - - - - - - - 24.0 1015.3 0.0
24/10:30am SE 2 5 - - - - - - - 25.3 1015.3 0.0
24/10:00am SW 3 5 - - - - - - - 24.3 1015.4 0.0
24/09:30am SW 4 6 - - - - - - - 22.9 1015.2 0.0
24/09:00am WSW 5 7 - - - - - - - 22.3 1014.8 58.8
24/08:30am WSW 4 6 - - - - - - - 21.6 1014.4 58.8
24/08:00am W 4 5 - - - - - - - 21.3 1014.1 58.8
24/07:30am W 5 5 - - - - - - - 20.5 1014.0 58.8
24/07:00am WNW 6 7 - - - - - - - 19.8 1013.8 58.8
24/06:30am WSW 6 7 - - - - - - - 19.8 1013.1 58.8
24/06:00am W 6 6 - - - - - - Recent precip. 19.7 1012.9 58.8
24/05:30am WNW 5 7 - - - - - - - 19.5 1012.6 58.6
24/05:00am WSW 6 8 - - - - - - - 19.5 1012.6 58.6
24/04:30am WSW 6 7 - - - - - - - 19.5 1012.4 58.6
24/04:00am W 6 8 - - - - - - - 19.3 1012.2 58.6
24/03:30am WSW 6 8 - - - - - - - 19.4 1012.1 58.6
24/03:00am W 6 8 - - - - - - - 19.4 1012.3 58.6
24/02:30am WSW 6 8 - - - - - - - 19.5 1012.5 58.6
24/02:00am W 2 5 - - - - - - - 19.4 1012.2 58.6
24/01:30am SW 5 7 - - - - - - - 19.5 1013.0 58.6
24/01:00am WSW 5 9 - - - - - - - 19.5 1012.8 58.6
24/12:30am N 5 7 - - - - - - - 19.5 1013.1 58.2
24/12:00am N 6 8 - - - - - - Recent precip. 19.5 1013.7 58.2
 
Date/Time
EDT
Wind Sea
Height
m
Swell Vis
km
Cloud Weather Temp
°C
Press
MSL
hPa
Rain since
9am
mm
Dir  Spd
kts
Gust
kts
Height
m
Period
s
Dir
23/11:30pm NNE 4 7 - - - - - - - 19.4 1012.9 58.2
23/11:00pm SSE 12 20 - - - - - - - 19.9 1013.8 48.4
23/10:30pm W 7 13 - - - - - - - 20.9 1013.0 26.6
23/10:00pm ESE 1 4 - - - - - - - 22.2 1012.1 26.6
23/09:30pm NNE 5 7 - - - - - - - 21.4 1011.6 26.6
23/09:00pm NNW 5 9 - - - - - - Recent precip. 20.6 1011.3 26.6
23/08:30pm NE 4 7 - - - - - - - 20.5 1011.5 26.6
23/08:00pm ENE 5 8 - - - - - - - 20.0 1010.6 26.4
23/07:30pm NE 9 16 - - - - - - - 20.1 1009.8 26.0
23/07:00pm N 7 10 - - - - - - - 19.7 1010.6 25.6
23/06:30pm ENE 11 18 - - - - - - - 19.5 1009.9 25.6
23/06:00pm SSE 12 24 - - - - - - Showers 20.4 1009.3 18.0
23/05:30pm E 10 17 - - - - - - - 25.0 1008.5 0.0
23/05:00pm E 11 18 - - - - - - - 24.8 1008.4 0.0
23/04:30pm ENE 9 15 - - - - - - - 25.5 1008.4 0.0
23/04:00pm ENE 9 14 - - - - - - - 26.0 1007.9 0.0
23/03:30pm ENE 10 14 - - - - - - - 27.1 1008.0 0.0
23/03:00pm E 9 15 - - - - - - - 28.3 1008.2 0.0
23/02:30pm E 12 18 - - - - - - - 28.1 1008.1 0.0
23/02:00pm E 11 16 - - - - - - - 29.5 1008.4 0.0
23/01:30pm E 11 15 - - - - - - - 28.0 1008.9 0.0
23/01:00pm E 10 15 - - - - - - - 28.8 1009.0 0.0
23/12:30pm E 11 15 - - - - - - - 28.8 1009.2 0.0
23/12:00pm ENE 9 13 - - - - - - - 29.2 1009.3 0.0
23/11:30am N 5 9 - - - - - - - 31.4 1009.6 0.0
23/11:00am N 6 10 - - - - - - - 30.1 1009.8 0.0
23/10:30am NW 5 7 - - - - - - - 29.2 1009.7 0.0
23/10:00am NNW 5 9 - - - - - - - 28.9 1009.3 0.0
23/09:30am NNW 6 10 - - - - - - - 28.7 1008.8 0.0
23/09:00am N 7 11 - - - - - - - 27.0 1008.8 0.0
23/08:30am N 7 10 - - - - - - - 25.9 1008.9 0.0
23/08:00am N 5 7 - - - - - - - 24.5 1008.7 0.0
23/07:30am NNW 5 7 - - - - - - - 23.1 1008.7 0.0
23/07:00am N 4 7 - - - - - - - 22.8 1008.5 0.0
23/06:30am N 5 8 - - - - - - - 23.0 1008.2 0.0
23/06:00am N 6 8 - - - - - - - 23.0 1007.8 0.0
23/05:30am NNE 7 9 - - - - - - - 23.2 1007.5 0.0
23/05:00am N 5 6 - - - - - - - 23.0 1007.5 0.0
23/04:30am N 5 7 - - - - - - - 23.1 1007.3 0.0
23/04:00am N 5 6 - - - - - - - 23.0 1007.4 0.0
23/03:30am N 6 9 - - - - - - - 23.1 1007.1 0.0
23/03:00am N 6 7 - - - - - - - 22.7 1007.4 0.0
23/02:30am N 5 8 - - - - - - - 22.6 1007.3 0.0
23/02:00am N 6 9 - - - - - - - 22.5 1007.2 0.0
23/01:30am N 5 7 - - - - - - - 22.1 1007.5 0.0
23/01:00am N 5 6 - - - - - - - 21.8 1007.7 0.0
23/12:30am NNW 4 5 - - - - - - - 21.7 1008.1 0.0
23/12:00am N 4 6 - - - - - - - 22.1 1007.8 0.0
 
Date/Time
EDT
Wind Sea
Height
m
Swell Vis
km
Cloud Weather Temp
°C
Press
MSL
hPa
Rain since
9am
mm
Dir  Spd
kts
Gust
kts
Height
m
Period
s
Dir
22/11:30pm N 7 10 - - - - - - - 22.0 1007.5 0.0
22/11:00pm N 6 8 - - - - - - - 22.2 1007.4 0.0
22/10:30pm N 5 6 - - - - - - - 22.7 1007.9 0.0
22/10:00pm N 4 5 - - - - - - - 23.1 1007.9 0.0
22/09:30pm NW 4 5 - - - - - - - 23.5 1007.9 0.0
22/09:00pm N 3 5 - - - - - - - 23.4 1007.2 0.0
22/08:30pm NNE 4 6 - - - - - - - 23.7 1006.6 0.0
22/08:00pm ENE 5 8 - - - - - - - 24.2 1006.2 0.0
22/07:30pm ESE 8 10 - - - - - - - 24.4 1005.6 0.0
22/07:00pm ESE 7 10 - - - - - - - 25.0 1005.4 0.0
22/06:30pm ESE 7 10 - - - - - - - 25.7 1005.0 0.0
22/06:00pm ESE 9 11 - - - - - - - 25.9 1004.3 0.0
22/05:30pm ESE 9 12 - - - - - - - 26.7 1003.8 0.0
22/05:00pm ESE 10 13 - - - - - - - 27.1 1003.6 0.0

Other formats

Comma delimited format used in spreadsheet applications
http://www.bom.gov.au/fwo/IDN60701/IDN60701.94598.axf

JavaScript Object Notation format (JSON) in row-major order
http://www.bom.gov.au/fwo/IDN60701/IDN60701.94598.json

Data quality

Most of these data are generated automatically and are frequently updated. Quality checks on data are not normally performed. It is possible for incorrect values to appear. Refer to information at About Latest Weather Observations and please check the disclaimer before using these data.